Krsko, Slovenia
Current Conditions -  °F | °C
As of 8:30 PM on Thursday 23 Oct 2014 (Local Time) from LJCE Reporting Station
Moderate Rain Moderate Rain  
Wind Chill: 44°   Ceiling: 2500
Heat Index: 46°   Visibility: 5mi
Dew Point: 46°   Wind: 6mph
Humidity: 100%   Direction: 220°SW
Pressure: 29.83"   Gusts: NA
Location:  45.96°N, 15.49°E
Report Text: LJCE 231830Z 22005KT 8000 RA FEW003 SCT015 OVC025 08/08 Q1010 RMK BLU
Loading
Personal Weather Stations






























Interactive Weather Map
Tropical Storm Tracking
New forecast layout! Learn more

10-Day Weather Forecast

Advertisements
Track Severe Weather on mobile